createdAt,value
2016-04-21T00:01:43.961Z,1023.48
2016-04-21T00:02:44.401Z,1023.47
2016-04-21T00:03:44.186Z,1023.52
2016-04-21T00:04:43.938Z,1023.52
2016-04-21T00:05:44.019Z,1023.57
2016-04-21T00:06:43.911Z,1023.57
2016-04-21T00:07:43.914Z,1023.54
2016-04-21T00:08:43.902Z,1023.53
2016-04-21T00:09:43.889Z,1023.56
2016-04-21T00:10:44.033Z,1023.52
2016-04-21T00:11:43.879Z,1023.51
2016-04-21T00:12:44.475Z,1023.54
2016-04-21T00:13:43.853Z,1023.51
2016-04-21T00:14:43.855Z,1023.47
2016-04-21T00:15:43.843Z,1023.52
2016-04-21T00:16:43.829Z,1023.5
2016-04-21T00:17:43.816Z,1023.55
2016-04-21T00:18:43.819Z,1023.46
2016-04-21T00:19:43.807Z,1023.46
2016-04-21T00:20:43.794Z,1023.42
2016-04-21T00:21:43.796Z,1023.42
2016-04-21T00:22:43.784Z,1023.39
2016-04-21T00:23:43.770Z,1023.38
2016-04-21T00:24:43.757Z,1023.37
2016-04-21T00:25:43.759Z,1023.36
2016-04-21T00:26:43.747Z,1023.36
2016-04-21T00:27:43.734Z,1023.33
2016-04-21T00:28:43.721Z,1023.33
2016-04-21T00:29:43.724Z,1023.38
2016-04-21T00:30:43.711Z,1023.33
2016-04-21T00:31:43.698Z,1023.33
2016-04-21T00:32:43.685Z,1023.34
2016-04-21T00:33:43.688Z,1023.36
2016-04-21T00:34:43.675Z,1023.36
2016-04-21T00:35:43.661Z,1023.32
2016-04-21T00:36:43.665Z,1023.31
2016-04-21T00:37:43.652Z,1023.32
2016-04-21T00:38:43.638Z,1023.28
2016-04-21T00:39:43.626Z,1023.34
2016-04-21T00:40:43.628Z,1023.31
2016-04-21T00:41:43.615Z,1023.29
2016-04-21T00:42:43.602Z,1023.25
2016-04-21T00:43:43.590Z,1023.29
2016-04-21T00:44:43.593Z,1023.3
2016-04-21T00:45:43.580Z,1023.3
2016-04-21T00:46:43.566Z,1023.29
2016-04-21T00:47:43.554Z,1023.26
2016-04-21T00:48:43.556Z,1023.27
2016-04-21T00:49:43.543Z,1023.23
2016-04-21T00:50:43.530Z,1023.2
2016-04-21T00:51:44.111Z,1023.18
2016-04-21T00:52:43.521Z,1023.16
2016-04-21T00:53:43.507Z,1023.17
2016-04-21T00:54:43.495Z,1023.15
2016-04-21T00:55:43.498Z,1023.17
2016-04-21T00:56:43.468Z,1023.2
2016-04-21T00:57:43.471Z,1023.19
2016-04-21T00:58:43.755Z,1023.17
2016-04-21T00:59:43.445Z,1023.15
2016-04-21T01:01:43.435Z,1023.11
2016-04-21T01:02:43.547Z,1023.12
2016-04-21T01:03:43.409Z,1023.13
2016-04-21T01:04:43.412Z,1023.1
2016-04-21T01:05:43.460Z,1023.12
2016-04-21T01:06:43.493Z,1023.14
2016-04-21T01:07:43.524Z,1023.11
2016-04-21T01:08:43.572Z,1023.14
2016-04-21T01:09:43.595Z,1023.12
2016-04-21T01:10:43.599Z,1023.08
2016-04-21T01:11:43.602Z,1023.09
2016-04-21T01:12:43.606Z,1023.09
2016-04-21T01:13:43.625Z,1023.1
2016-04-21T01:14:43.624Z,1023.1
2016-04-21T01:15:43.618Z,1023.11
2016-04-21T01:16:43.626Z,1023.11
2016-04-21T01:17:43.619Z,1023.08
2016-04-21T01:18:44.518Z,1023.03
2016-04-21T01:19:43.604Z,1023.04
2016-04-21T01:20:43.859Z,1023.09
2016-04-21T01:21:43.597Z,1023.05
2016-04-21T01:22:43.591Z,1023.07
2016-04-21T01:23:43.580Z,1023.04
2016-04-21T01:24:43.569Z,1023.07
2016-04-21T01:25:43.557Z,1023.08
2016-04-21T01:26:43.560Z,1023.05
2016-04-21T01:27:43.939Z,1023.08
2016-04-21T01:28:44.286Z,1023.05
2016-04-21T01:29:43.524Z,1023.01
2016-04-21T01:30:43.527Z,1023.06
2016-04-21T01:31:43.514Z,1023
2016-04-21T01:32:43.501Z,1023.04
2016-04-21T01:33:43.489Z,1023.02
2016-04-21T01:34:43.492Z,1023
2016-04-21T01:35:43.479Z,1023
2016-04-21T01:36:43.466Z,1022.99
2016-04-21T01:37:43.453Z,1022.97
2016-04-21T01:38:43.457Z,1022.94
2016-04-21T01:39:43.443Z,1022.95
2016-04-21T01:40:43.431Z,1022.96
2016-04-21T01:41:43.417Z,1022.96
2016-04-21T01:42:43.404Z,1022.94
2016-04-21T01:43:43.406Z,1022.92
2016-04-21T01:44:43.394Z,1022.94
2016-04-21T01:45:43.381Z,1022.93
2016-04-21T01:46:43.368Z,1022.92
2016-04-21T01:47:43.356Z,1022.86
2016-04-21T01:48:43.358Z,1022.9
2016-04-21T01:49:43.345Z,1022.91
2016-04-21T01:50:43.332Z,1022.88
2016-04-21T01:51:43.319Z,1022.88
2016-04-21T01:52:43.322Z,1022.87
2016-04-21T01:53:43.309Z,1022.83
2016-04-21T01:54:43.297Z,1022.82
2016-04-21T01:55:43.283Z,1022.82
2016-04-21T01:56:43.286Z,1022.76
2016-04-21T01:57:43.272Z,1022.74
2016-04-21T01:58:43.260Z,1022.75
2016-04-21T01:59:43.246Z,1022.73
2016-04-21T02:00:43.234Z,1022.74
2016-04-21T02:01:43.237Z,1022.73
2016-04-21T02:02:43.224Z,1022.74
2016-04-21T02:03:43.211Z,1022.77
2016-04-21T02:04:43.198Z,1022.79
2016-04-21T02:05:43.185Z,1022.83
2016-04-21T02:06:43.187Z,1022.79
2016-04-21T02:07:43.175Z,1022.83
2016-04-21T02:08:43.162Z,1022.83
2016-04-21T02:09:43.149Z,1022.8
2016-04-21T02:10:43.136Z,1022.82
2016-04-21T02:11:43.139Z,1022.8
2016-04-21T02:12:43.125Z,1022.82
2016-04-21T02:13:43.113Z,1022.76
2016-04-21T02:14:43.116Z,1022.79
2016-04-21T02:15:43.103Z,1022.78
2016-04-21T02:16:43.089Z,1022.77
2016-04-21T02:17:43.076Z,1022.81
2016-04-21T02:18:43.063Z,1022.79
2016-04-21T02:19:43.066Z,1022.81
2016-04-21T02:20:43.070Z,1022.81
2016-04-21T02:21:43.041Z,1022.84
2016-04-21T02:22:43.027Z,1022.8
2016-04-21T02:23:43.014Z,1022.83
2016-04-21T02:24:43.003Z,1022.83
2016-04-21T02:25:42.989Z,1022.84
2016-04-21T02:26:42.992Z,1022.84
2016-04-21T02:27:42.978Z,1022.79
2016-04-21T02:28:42.966Z,1022.83
2016-04-21T02:29:42.969Z,1022.82
2016-04-21T02:30:42.955Z,1022.79
2016-04-21T02:31:42.943Z,1022.81
2016-04-21T02:32:42.929Z,1022.79
2016-04-21T02:33:42.916Z,1022.81
2016-04-21T02:34:42.904Z,1022.81
2016-04-21T02:35:42.906Z,1022.82
2016-04-21T02:36:42.894Z,1022.82
2016-04-21T02:37:42.880Z,1022.81
2016-04-21T02:38:42.883Z,1022.82
2016-04-21T02:39:42.871Z,1022.83
2016-04-21T02:40:42.857Z,1022.85
2016-04-21T02:41:42.845Z,1022.83
2016-04-21T02:42:42.831Z,1022.82
2016-04-21T02:43:42.834Z,1022.8
2016-04-21T02:44:42.821Z,1022.81
2016-04-21T02:45:42.808Z,1022.8
2016-04-21T02:46:42.796Z,1022.79
2016-04-21T02:47:42.782Z,1022.79
2016-04-21T02:48:43.176Z,1022.8
2016-04-21T02:49:42.772Z,1022.85
2016-04-21T02:50:42.759Z,1022.85
2016-04-21T02:51:42.747Z,1022.85
2016-04-21T02:52:42.733Z,1022.85
2016-04-21T02:53:42.720Z,1022.87
2016-04-21T02:54:42.723Z,1022.86
2016-04-21T02:55:42.710Z,1022.86
2016-04-21T02:56:42.697Z,1022.86
2016-04-21T02:57:42.683Z,1022.86
2016-04-21T02:58:42.687Z,1022.86
2016-04-21T02:59:42.674Z,1022.84
2016-04-21T03:00:42.661Z,1022.84
2016-04-21T03:01:42.649Z,1022.83
2016-04-21T03:02:42.635Z,1022.83
2016-04-21T03:03:42.638Z,1022.83
2016-04-21T03:04:42.625Z,1022.83
2016-04-21T03:05:42.612Z,1022.85
2016-04-21T03:06:42.599Z,1022.87
2016-04-21T03:07:42.585Z,1022.85
2016-04-21T03:09:42.577Z,1022.87
2016-04-21T03:10:42.563Z,1022.84
2016-04-21T03:11:42.551Z,1022.89
2016-04-21T03:12:42.537Z,1022.86
2016-04-21T03:13:42.524Z,1022.86
2016-04-21T03:14:42.527Z,1022.87
2016-04-21T03:15:42.514Z,1022.86
2016-04-21T03:16:42.501Z,1022.84
2016-04-21T03:17:42.566Z,1022.84
2016-04-21T03:18:42.475Z,1022.8
2016-04-21T03:19:43.243Z,1022.76
2016-04-21T03:20:43.683Z,1022.8
2016-04-21T03:21:42.456Z,1022.78
2016-04-21T03:22:42.448Z,1022.75
2016-04-21T03:23:42.435Z,1022.77
2016-04-21T03:24:42.421Z,1022.76
2016-04-21T03:25:42.409Z,1022.75
2016-04-21T03:26:42.412Z,1022.74
2016-04-21T03:27:42.398Z,1022.74
2016-04-21T03:28:42.387Z,1022.75
2016-04-21T03:29:42.373Z,1022.72
2016-04-21T03:30:42.359Z,1022.77
2016-04-21T03:31:42.347Z,1022.81
2016-04-21T03:32:42.350Z,1022.77
2016-04-21T03:33:42.337Z,1022.78
2016-04-21T03:34:42.323Z,1022.75
2016-04-21T03:35:42.311Z,1022.74
2016-04-21T03:36:42.298Z,1022.77
2016-04-21T03:37:42.301Z,1022.74
2016-04-21T03:38:42.288Z,1022.73
2016-04-21T03:39:42.291Z,1022.74
2016-04-21T03:40:42.261Z,1022.78
2016-04-21T03:41:42.264Z,1022.73
2016-04-21T03:42:42.252Z,1022.78
2016-04-21T03:43:42.239Z,1022.79
2016-04-21T03:44:42.225Z,1022.73
2016-04-21T03:45:42.213Z,1022.74
2016-04-21T03:46:42.215Z,1022.77
2016-04-21T03:47:42.203Z,1022.81
2016-04-21T03:48:42.190Z,1022.76
2016-04-21T03:49:42.177Z,1022.78
2016-04-21T03:50:42.163Z,1022.79
2016-04-21T03:51:42.151Z,1022.85
2016-04-21T03:52:42.137Z,1022.81
2016-04-21T03:53:42.141Z,1022.83
2016-04-21T03:54:42.143Z,1022.85
2016-04-21T03:55:43.459Z,1022.89
2016-04-21T03:56:42.102Z,1022.83
2016-04-21T03:57:42.292Z,1022.87
2016-04-21T03:58:42.092Z,1022.88
2016-04-21T03:59:42.078Z,1022.91
2016-04-21T04:00:42.065Z,1022.9
2016-04-21T04:01:42.256Z,1022.93
2016-04-21T04:02:42.040Z,1022.95
2016-04-21T04:03:42.042Z,1022.96
2016-04-21T04:04:42.029Z,1022.97
2016-04-21T04:05:42.017Z,1022.96
2016-04-21T04:06:42.003Z,1022.96
2016-04-21T04:07:41.991Z,1022.95
2016-04-21T04:08:42.789Z,1022.91
2016-04-21T04:09:42.575Z,1022.92
2016-04-21T04:10:41.967Z,1022.94
2016-04-21T04:11:41.955Z,1022.96
2016-04-21T04:12:41.941Z,1022.96
2016-04-21T04:13:41.928Z,1022.97
2016-04-21T04:14:41.930Z,1022.94
2016-04-21T04:15:41.918Z,1022.93
2016-04-21T04:16:41.905Z,1022.99
2016-04-21T04:17:41.893Z,1023
2016-04-21T04:18:41.880Z,1022.99
2016-04-21T04:19:41.882Z,1022.96
2016-04-21T04:20:41.869Z,1022.94
2016-04-21T04:21:41.857Z,1022.95
2016-04-21T04:22:41.860Z,1022.94
2016-04-21T04:23:41.846Z,1022.94
2016-04-21T04:24:41.833Z,1022.91
2016-04-21T04:25:41.820Z,1022.9
2016-04-21T04:26:41.807Z,1022.98
2016-04-21T04:27:41.857Z,1022.94
2016-04-21T04:28:42.031Z,1022.95
2016-04-21T04:29:41.785Z,1022.92
2016-04-21T04:30:42.474Z,1022.91
2016-04-21T04:31:41.759Z,1022.89
2016-04-21T04:32:41.761Z,1022.9
2016-04-21T04:33:41.748Z,1022.89
2016-04-21T04:34:41.734Z,1022.92
2016-04-21T04:35:41.738Z,1022.91
2016-04-21T04:36:41.725Z,1022.9
2016-04-21T04:37:41.822Z,1022.9
2016-04-21T04:38:41.715Z,1022.95
2016-04-21T04:39:41.702Z,1022.88
2016-04-21T04:40:42.126Z,1022.89
2016-04-21T04:41:41.691Z,1022.82
2016-04-21T04:42:41.678Z,1022.86
2016-04-21T04:43:41.666Z,1022.84
2016-04-21T04:44:41.669Z,1022.84
2016-04-21T04:45:41.655Z,1022.82
2016-04-21T04:46:41.658Z,1022.8
2016-04-21T04:47:41.644Z,1022.8
2016-04-21T04:48:41.648Z,1022.8
2016-04-21T04:49:41.635Z,1022.82
2016-04-21T04:50:41.638Z,1022.84
2016-04-21T04:51:41.624Z,1022.79
2016-04-21T04:52:41.627Z,1022.8
2016-04-21T04:53:41.630Z,1022.79
2016-04-21T04:54:41.618Z,1022.81
2016-04-21T04:55:41.605Z,1022.86
2016-04-21T04:56:41.607Z,1022.84
2016-04-21T04:57:41.594Z,1022.83
2016-04-21T04:58:41.596Z,1022.85
2016-04-21T04:59:41.584Z,1022.84
2016-04-21T05:00:41.586Z,1022.85
2016-04-21T05:01:41.590Z,1022.89
2016-04-21T05:02:41.576Z,1022.89
2016-04-21T05:03:41.579Z,1022.88
2016-04-21T05:04:41.581Z,1022.88
2016-04-21T05:05:41.584Z,1022.85
2016-04-21T05:06:41.570Z,1022.84
2016-04-21T05:07:41.573Z,1022.81
2016-04-21T05:08:41.577Z,1022.87
2016-04-21T05:09:41.564Z,1022.86
2016-04-21T05:10:41.567Z,1022.87
2016-04-21T05:11:41.569Z,1022.83
2016-04-21T05:12:41.572Z,1022.89
2016-04-21T05:13:41.574Z,1022.86
2016-04-21T05:14:41.577Z,1022.89
2016-04-21T05:15:42.111Z,1022.85
2016-04-21T05:16:41.567Z,1022.85
2016-04-21T05:17:41.569Z,1022.88
2016-04-21T05:18:41.572Z,1022.85
2016-04-21T05:19:41.575Z,1022.85
2016-04-21T05:20:41.563Z,1022.89
2016-04-21T05:21:41.580Z,1022.94
2016-04-21T05:22:41.568Z,1022.92
2016-04-21T05:23:41.585Z,1022.95
2016-04-21T05:24:42.885Z,1022.97
2016-04-21T05:25:41.685Z,1022.95
2016-04-21T05:27:41.581Z,1022.98
2016-04-21T05:28:41.584Z,1023.04
2016-04-21T05:29:41.587Z,1023.04
2016-04-21T05:30:41.590Z,1023.04
2016-04-21T05:31:41.592Z,1023.05
2016-04-21T05:32:41.595Z,1023.08
2016-04-21T05:33:41.634Z,1023.08
2016-04-21T05:34:41.606Z,1023.13
2016-04-21T05:35:41.607Z,1023.14
2016-04-21T05:36:41.609Z,1023.18
2016-04-21T05:37:41.618Z,1023.2
2016-04-21T05:38:41.621Z,1023.2
2016-04-21T05:39:41.624Z,1023.18
2016-04-21T05:40:41.627Z,1023.23
2016-04-21T05:41:41.629Z,1023.23
2016-04-21T05:42:41.647Z,1023.25
2016-04-21T05:43:41.651Z,1023.23
2016-04-21T05:44:41.653Z,1023.22
2016-04-21T05:45:41.671Z,1023.22
2016-04-21T05:46:41.675Z,1023.25
2016-04-21T05:47:41.677Z,1023.32
2016-04-21T05:48:41.680Z,1023.36
2016-04-21T05:49:41.683Z,1023.32
2016-04-21T05:50:41.685Z,1023.36
2016-04-21T05:51:41.703Z,1023.34
2016-04-21T05:52:41.705Z,1023.35
2016-04-21T05:53:41.709Z,1023.34
2016-04-21T05:54:41.727Z,1023.33
2016-04-21T05:55:41.729Z,1023.32
2016-04-21T05:56:41.733Z,1023.28
2016-04-21T05:57:42.922Z,1023.34
2016-04-21T05:58:42.502Z,1023.37
2016-04-21T05:59:41.756Z,1023.41
2016-04-21T06:00:42.305Z,1023.46
2016-04-21T06:01:42.293Z,1023.55
2016-04-21T06:02:41.780Z,1023.6
2016-04-21T06:03:41.798Z,1023.64
2016-04-21T06:04:41.801Z,1023.66
2016-04-21T06:05:41.804Z,1023.66
2016-04-21T06:06:41.821Z,1023.68
2016-04-21T06:07:41.824Z,1023.71
2016-04-21T06:08:41.842Z,1023.65
2016-04-21T06:09:41.845Z,1023.67
2016-04-21T06:10:41.864Z,1023.62
2016-04-21T06:11:41.867Z,1023.63
2016-04-21T06:12:41.869Z,1023.61
2016-04-21T06:13:41.887Z,1023.61
2016-04-21T06:14:41.890Z,1023.67
2016-04-21T06:15:41.909Z,1023.64
2016-04-21T06:16:41.911Z,1023.67
2016-04-21T06:17:41.914Z,1023.66
2016-04-21T06:18:41.932Z,1023.61
2016-04-21T06:19:41.950Z,1023.65
2016-04-21T06:20:41.953Z,1023.7
2016-04-21T06:21:41.971Z,1023.78
2016-04-21T06:22:41.974Z,1023.81
2016-04-21T06:23:41.992Z,1023.89
2016-04-21T06:24:41.994Z,1023.94
2016-04-21T06:25:42.013Z,1023.99
2016-04-21T06:26:42.016Z,1024.03
2016-04-21T06:27:42.035Z,1024.15
2016-04-21T06:28:42.037Z,1024.22
2016-04-21T06:29:42.055Z,1024.33
2016-04-21T06:30:42.074Z,1024.43
2016-04-21T06:31:42.092Z,1024.49
2016-04-21T06:32:42.095Z,1024.67
2016-04-21T06:33:42.097Z,1024.8
2016-04-21T06:34:42.116Z,1024.97
2016-04-21T06:35:42.931Z,1024.97
2016-04-21T06:36:42.137Z,1025.01
2016-04-21T06:37:42.655Z,1025.05
2016-04-21T06:38:42.158Z,1025.16
2016-04-21T06:39:42.176Z,1025.16
2016-04-21T06:40:42.179Z,1025.24
2016-04-21T06:41:42.198Z,1025.42
2016-04-21T06:42:42.215Z,1025.65
2016-04-21T06:43:42.217Z,1025.67
2016-04-21T06:44:42.237Z,1025.61
2016-04-21T06:45:42.254Z,1025.55
2016-04-21T06:46:43.226Z,1025.44
2016-04-21T06:47:42.276Z,1025.5
2016-04-21T06:48:42.295Z,1025.66
2016-04-21T06:49:42.297Z,1025.76
2016-04-21T06:50:42.315Z,1025.78
2016-04-21T06:51:42.334Z,1025.75
2016-04-21T06:52:42.336Z,1025.75
2016-04-21T06:53:42.355Z,1025.84
2016-04-21T06:54:42.373Z,1025.86
2016-04-21T06:55:42.391Z,1025.73
2016-04-21T06:56:42.394Z,1025.54
2016-04-21T06:57:42.412Z,1025.39
2016-04-21T06:58:42.430Z,1025.43
2016-04-21T06:59:42.433Z,1025.48
2016-04-21T07:00:42.452Z,1025.42
2016-04-21T07:01:42.469Z,1025.37
2016-04-21T07:02:42.488Z,1025.37
2016-04-21T07:03:42.507Z,1025.31
2016-04-21T07:04:42.524Z,1025.29
2016-04-21T07:05:43.574Z,1025.35
2016-04-21T07:06:42.827Z,1025.36
2016-04-21T07:07:43.501Z,1025.33
2016-04-21T07:08:42.582Z,1025.26
2016-04-21T07:09:42.585Z,1025.09
2016-04-21T07:10:42.868Z,1024.99
2016-04-21T07:11:42.621Z,1024.94
2016-04-21T07:12:42.640Z,1024.86
2016-04-21T07:13:42.674Z,1024.77
2016-04-21T07:14:43.676Z,1024.71
2016-04-21T07:16:42.697Z,1024.58
2016-04-21T07:17:42.715Z,1024.56
2016-04-21T07:18:42.734Z,1024.5
2016-04-21T07:19:42.736Z,1024.46
2016-04-21T07:20:42.756Z,1024.46
2016-04-21T07:21:42.773Z,1024.42
2016-04-21T07:22:42.791Z,1024.41
2016-04-21T07:23:42.811Z,1024.38
2016-04-21T07:24:42.829Z,1024.4
2016-04-21T07:25:42.847Z,1024.38
2016-04-21T07:26:42.865Z,1024.35
2016-04-21T07:27:42.884Z,1024.34
2016-04-21T07:28:42.886Z,1024.3
2016-04-21T07:29:42.905Z,1024.26
2016-04-21T07:30:42.922Z,1024.16
2016-04-21T07:31:42.941Z,1024.15
2016-04-21T07:32:42.960Z,1024.1
2016-04-21T07:33:42.977Z,1024.02
2016-04-21T07:34:42.980Z,1023.92
2016-04-21T07:35:43.013Z,1023.86
2016-04-21T07:36:43.032Z,1023.84
2016-04-21T07:37:43.036Z,1023.8
2016-04-21T07:38:43.054Z,1023.78
2016-04-21T07:39:43.071Z,1023.76
2016-04-21T07:40:43.091Z,1023.76
2016-04-21T07:41:43.109Z,1023.75
2016-04-21T07:42:43.127Z,1023.71
2016-04-21T07:43:43.146Z,1023.75
2016-04-21T07:44:43.163Z,1023.76
2016-04-21T07:45:43.182Z,1023.71
2016-04-21T07:46:43.200Z,1023.7
2016-04-21T07:47:43.218Z,1023.67
2016-04-21T07:48:43.221Z,1023.67
2016-04-21T07:49:43.239Z,1023.65
2016-04-21T07:50:43.258Z,1023.69
2016-04-21T07:51:43.292Z,1023.8
2016-04-21T07:54:43.331Z,1023.76
2016-04-21T07:55:43.350Z,1023.76
2016-04-21T07:56:43.367Z,1023.73
2016-04-21T07:57:43.386Z,1023.73
2016-04-21T07:58:43.405Z,1023.77
2016-04-21T07:59:43.422Z,1023.75
2016-04-21T08:00:43.456Z,1023.73
2016-04-21T08:01:43.458Z,1023.78
2016-04-21T08:02:43.478Z,1023.73
2016-04-21T08:03:43.496Z,1023.7
2016-04-21T08:04:43.529Z,1023.57
2016-04-21T08:05:43.533Z,1023.54
2016-04-21T08:06:43.566Z,1023.48
2016-04-21T08:07:43.569Z,1023.47
2016-04-21T08:08:43.744Z,1023.35
2016-04-21T08:09:43.605Z,1023.4
2016-04-21T08:10:43.624Z,1023.38
2016-04-21T08:11:43.657Z,1023.34
2016-04-21T08:12:43.676Z,1023.39
2016-04-21T08:13:43.695Z,1023.35
2016-04-21T08:14:43.713Z,1023.35
2016-04-21T08:15:43.747Z,1023.31
2016-04-21T08:16:43.734Z,1023.33
2016-04-21T08:17:43.752Z,1023.38
2016-04-21T08:18:43.770Z,1023.35
2016-04-21T08:19:43.790Z,1023.32
2016-04-21T08:20:43.792Z,1023.26
2016-04-21T08:21:43.810Z,1023.3
2016-04-21T08:22:43.828Z,1023.34
2016-04-21T08:23:43.846Z,1023.32
2016-04-21T08:24:43.865Z,1023.31
2016-04-21T08:25:43.867Z,1023.27
2016-04-21T08:26:43.886Z,1023.17
2016-04-21T08:27:43.903Z,1023.01
2016-04-21T08:28:44.736Z,1022.68
2016-04-21T08:29:43.925Z,1022.69
2016-04-21T08:30:43.943Z,1022.59
2016-04-21T08:31:43.962Z,1022.59
2016-04-21T08:32:43.964Z,1022.56
2016-04-21T08:33:44.139Z,1022.6
2016-04-21T08:34:44.564Z,1022.53
2016-04-21T08:35:44.004Z,1022.6
2016-04-21T08:36:44.022Z,1022.62
2016-04-21T08:37:44.024Z,1022.56
2016-04-21T08:38:44.058Z,1022.58
2016-04-21T08:39:44.046Z,1022.68
2016-04-21T08:40:44.095Z,1022.65
2016-04-21T08:41:44.067Z,1022.58
2016-04-21T08:42:44.085Z,1022.62
2016-04-21T08:43:44.088Z,1022.62
2016-04-21T08:44:44.091Z,1022.54
2016-04-21T08:45:44.109Z,1022.58
2016-04-21T08:46:44.111Z,1022.64
2016-04-21T08:47:44.130Z,1022.63
2016-04-21T08:48:44.118Z,1022.66
2016-04-21T08:49:44.135Z,1022.58
2016-04-21T08:50:44.137Z,1022.57
2016-04-21T08:51:44.140Z,1022.55
2016-04-21T08:52:44.148Z,1022.58
2016-04-21T08:53:44.151Z,1022.55
2016-04-21T08:54:44.153Z,1022.57
2016-04-21T08:55:44.156Z,1022.55
2016-04-21T08:56:44.158Z,1022.5
2016-04-21T08:57:44.161Z,1022.53
2016-04-21T08:58:44.164Z,1022.47
2016-04-21T08:59:44.166Z,1022.47
2016-04-21T09:00:44.185Z,1022.5
2016-04-21T09:01:44.173Z,1022.53
2016-04-21T09:02:44.175Z,1022.54
2016-04-21T09:03:44.177Z,1022.55
2016-04-21T09:04:44.196Z,1022.57
2016-04-21T09:05:44.183Z,1022.58
2016-04-21T09:06:44.186Z,1022.55
2016-04-21T09:07:44.188Z,1022.54
2016-04-21T09:08:44.191Z,1022.5
2016-04-21T09:09:44.194Z,1022.51
2016-04-21T09:10:44.196Z,1022.47
2016-04-21T09:11:45.355Z,1022.41
2016-04-21T09:12:44.904Z,1022.41
2016-04-21T09:13:44.205Z,1022.44
2016-04-21T09:14:44.614Z,1022.37
2016-04-21T09:15:44.757Z,1022.37
2016-04-21T09:16:44.212Z,1022.4
2016-04-21T09:17:44.200Z,1022.37
2016-04-21T09:18:44.202Z,1022.33
2016-04-21T09:19:44.206Z,1022.33
2016-04-21T09:21:44.211Z,1022.24
2016-04-21T09:22:44.963Z,1022.23
2016-04-21T09:23:44.606Z,1022.2
2016-04-21T09:24:44.203Z,1022.23
2016-04-21T09:25:44.456Z,1022.22
2016-04-21T09:26:44.553Z,1022.27
2016-04-21T09:27:44.212Z,1022.25
2016-04-21T09:28:44.214Z,1022.25
2016-04-21T09:29:44.217Z,1022.29
2016-04-21T09:30:44.203Z,1022.21
2016-04-21T09:31:44.206Z,1022.17
2016-04-21T09:32:44.208Z,1022.16
2016-04-21T09:33:44.211Z,1022.19
2016-04-21T09:34:44.214Z,1022.14
2016-04-21T09:35:44.217Z,1022.12
2016-04-21T09:36:44.219Z,1022.11
2016-04-21T09:37:44.207Z,1022.17
2016-04-21T09:38:44.224Z,1022.12
2016-04-21T09:39:44.228Z,1022.04
2016-04-21T09:40:44.215Z,1022.13
2016-04-21T09:41:44.218Z,1022.07
2016-04-21T09:42:44.204Z,1022.1
2016-04-21T09:43:44.207Z,1022.06
2016-04-21T09:44:44.210Z,1021.99
2016-04-21T09:45:44.212Z,1022.03
2016-04-21T09:46:44.371Z,1022.06
2016-04-21T09:47:44.218Z,1022.09
2016-04-21T09:48:44.204Z,1022.1
2016-04-21T09:49:44.224Z,1022.09
2016-04-21T09:50:44.210Z,1022.09
2016-04-21T09:51:44.212Z,1022.06
2016-04-21T09:52:44.216Z,1022.03
2016-04-21T09:53:44.218Z,1022.03
2016-04-21T09:54:44.206Z,1021.96
2016-04-21T09:55:44.631Z,1021.95
2016-04-21T09:56:44.945Z,1021.93
2016-04-21T09:57:44.214Z,1021.88
2016-04-21T09:58:44.216Z,1021.84
2016-04-21T09:59:44.220Z,1021.89
2016-04-21T10:00:44.206Z,1021.88
2016-04-21T10:01:44.209Z,1021.82
2016-04-21T10:02:44.212Z,1021.84
2016-04-21T10:03:44.230Z,1021.82
2016-04-21T10:04:44.216Z,1021.88
2016-04-21T10:05:44.219Z,1021.84
2016-04-21T10:06:44.207Z,1021.86
2016-04-21T10:07:44.210Z,1021.84
2016-04-21T10:08:44.212Z,1021.82
2016-04-21T10:09:44.215Z,1021.78
2016-04-21T10:10:44.234Z,1021.81
2016-04-21T10:11:44.297Z,1021.82
2016-04-21T10:12:44.327Z,1021.86
2016-04-21T10:13:44.374Z,1021.84
2016-04-21T10:14:44.421Z,1021.79
2016-04-21T10:15:44.463Z,1021.84
2016-04-21T10:16:44.450Z,1021.89
2016-04-21T10:17:44.468Z,1021.85
2016-04-21T10:18:44.487Z,1021.86
2016-04-21T10:19:44.506Z,1021.82
2016-04-21T10:20:44.516Z,1021.81
2016-04-21T10:21:44.524Z,1021.76
2016-04-21T10:22:44.519Z,1021.77
2016-04-21T10:23:44.527Z,1021.76
2016-04-21T10:24:44.535Z,1021.73
2016-04-21T10:25:44.525Z,1021.75
2016-04-21T10:26:44.529Z,1021.71
2016-04-21T10:27:44.534Z,1021.76
2016-04-21T10:28:44.539Z,1021.73
2016-04-21T10:29:44.544Z,1021.76
2016-04-21T10:30:45.439Z,1021.77
2016-04-21T10:31:44.598Z,1021.77
2016-04-21T10:32:45.898Z,1021.76
2016-04-21T10:33:44.541Z,1021.78
2016-04-21T10:34:44.545Z,1021.76
2016-04-21T10:35:45.095Z,1021.78
2016-04-21T10:36:44.551Z,1021.75
2016-04-21T10:37:44.555Z,1021.73
2016-04-21T10:38:44.542Z,1021.79
2016-04-21T10:40:44.548Z,1021.77
2016-04-21T10:41:44.535Z,1021.74
2016-04-21T10:42:44.538Z,1021.67
2016-04-21T10:43:45.134Z,1021.71
2016-04-21T10:44:44.543Z,1021.71
2016-04-21T10:45:44.546Z,1021.66
2016-04-21T10:46:44.548Z,1021.68
2016-04-21T10:47:44.537Z,1021.62
2016-04-21T10:48:44.539Z,1021.64
2016-04-21T10:49:44.542Z,1021.67
2016-04-21T10:50:44.545Z,1021.73
2016-04-21T10:51:44.531Z,1021.7
2016-04-21T10:52:44.534Z,1021.58
2016-04-21T10:53:44.537Z,1021.62
2016-04-21T10:54:44.539Z,1021.6
2016-04-21T10:55:44.526Z,1021.6
2016-04-21T10:56:44.528Z,1021.61
2016-04-21T10:57:44.531Z,1021.58
2016-04-21T10:58:44.534Z,1021.52
2016-04-21T10:59:44.536Z,1021.49
2016-04-21T11:00:44.539Z,1021.46
2016-04-21T11:01:44.542Z,1021.55
2016-04-21T11:02:44.530Z,1021.48
2016-04-21T11:03:44.532Z,1021.39
2016-04-21T11:04:44.535Z,1021.48
2016-04-21T11:05:44.522Z,1021.39
2016-04-21T11:06:44.525Z,1021.38
2016-04-21T11:07:44.527Z,1021.36
2016-04-21T11:08:44.843Z,1021.36
2016-04-21T11:09:44.532Z,1021.37
2016-04-21T11:10:44.519Z,1021.37
2016-04-21T11:11:44.585Z,1021.35
2016-04-21T11:12:44.525Z,1021.34
2016-04-21T11:13:45.793Z,1021.33
2016-04-21T11:14:44.515Z,1021.28
2016-04-21T11:15:44.862Z,1021.23
2016-04-21T11:16:44.521Z,1021.26
2016-04-21T11:17:44.522Z,1021.21
2016-04-21T11:18:44.525Z,1021.2
2016-04-21T11:19:44.512Z,1021.22
2016-04-21T11:20:44.515Z,1021.16
2016-04-21T11:21:44.517Z,1021.16
2016-04-21T11:22:44.521Z,1021.16
2016-04-21T11:23:44.523Z,1021.06
2016-04-21T11:24:44.526Z,1021.09
2016-04-21T11:25:44.528Z,1021.09
2016-04-21T11:26:44.516Z,1021.08
2016-04-21T11:27:44.519Z,1021.03
2016-04-21T11:28:44.522Z,1021.07
2016-04-21T11:29:44.508Z,1021.08
2016-04-21T11:30:44.511Z,1021.02
2016-04-21T11:31:44.513Z,1020.97
2016-04-21T11:32:44.516Z,1020.93
2016-04-21T11:33:44.519Z,1020.91
2016-04-21T11:34:44.522Z,1020.93
2016-04-21T11:35:44.508Z,1020.91
2016-04-21T11:36:44.511Z,1020.94
2016-04-21T11:37:44.513Z,1020.93
2016-04-21T11:38:44.516Z,1020.87
2016-04-21T11:39:44.504Z,1020.87
2016-04-21T11:40:44.522Z,1020.86
2016-04-21T11:41:44.510Z,1020.85
2016-04-21T11:42:44.496Z,1020.84
2016-04-21T11:43:44.499Z,1020.84
2016-04-21T11:44:44.502Z,1020.85
2016-04-21T11:45:44.505Z,1020.8
2016-04-21T11:46:44.507Z,1020.81
2016-04-21T11:47:44.509Z,1020.76
2016-04-21T11:48:44.496Z,1020.79
2016-04-21T11:49:45.218Z,1020.79
2016-04-21T11:50:44.502Z,1020.77
2016-04-21T11:51:44.959Z,1020.71
2016-04-21T11:52:44.492Z,1020.77
2016-04-21T11:53:44.509Z,1020.75
2016-04-21T11:54:44.497Z,1020.73
2016-04-21T11:55:44.500Z,1020.7
2016-04-21T11:56:44.503Z,1020.69
2016-04-21T11:57:44.490Z,1020.69
2016-04-21T11:59:44.495Z,1020.72
2016-04-21T12:00:44.497Z,1020.77
2016-04-21T12:01:44.485Z,1020.76
2016-04-21T12:02:44.488Z,1020.71
2016-04-21T12:03:44.491Z,1020.7
2016-04-21T12:04:44.494Z,1020.7
2016-04-21T12:05:44.496Z,1020.65
2016-04-21T12:06:44.483Z,1020.62
2016-04-21T12:07:44.485Z,1020.62
2016-04-21T12:08:44.488Z,1020.53
2016-04-21T12:09:44.491Z,1020.53
2016-04-21T12:10:44.493Z,1020.53
2016-04-21T12:11:44.480Z,1020.52
2016-04-21T12:12:44.515Z,1020.45
2016-04-21T12:13:44.485Z,1020.5
2016-04-21T12:14:44.488Z,1020.4
2016-04-21T12:15:44.476Z,1020.45
2016-04-21T12:16:44.479Z,1020.43
2016-04-21T12:17:44.481Z,1020.33
2016-04-21T12:18:44.484Z,1020.35